Terminal Aerodrome Forecast
Issued by NWS

Home | Current Version | Previous Version | Graphics & Text | Print | Product List | Glossary On
Versions: 1 2 3 4 5 6 7 8 9 10 11 12 13 14
000
FTUS43 KGRB 031700
TAFATW
TAF
KATW 031736Z 0318/0418 21016G21KT P6SM SCT060 BKN100
     FM040000 22007KT P6SM BKN090
      TEMPO 0401/0405 33025G35KT 3SM TSRA BKN030CB
     FM040500 18007KT P6SM VCSH SCT030 BKN090
     FM041000 25004KT P6SM SCT015 BKN060
     FM041400 02010KT P6SM BKN100=

USA.gov is the U.S. government's official web portal to all federal, state and local government web resources and services.